sensor_id;sensor_type;location;lat;lon;timestamp;pressure;altitude;pressure_sealevel;temperature;humidity
47706;BME280;33471;52.104;1.318;2023-02-07T00:01:25;103601.71;;;5.51;45.39
47706;BME280;33471;52.104;1.318;2023-02-07T00:03:53;103601.58;;;5.96;45.10
47706;BME280;33471;52.104;1.318;2023-02-07T00:06:22;103606.97;;;5.46;45.46
47706;BME280;33471;52.104;1.318;2023-02-07T00:08:50;103600.75;;;5.32;45.41
47706;BME280;33471;52.104;1.318;2023-02-07T00:11:20;103594.79;;;5.34;45.42
47706;BME280;33471;52.104;1.318;2023-02-07T00:13:51;103592.80;;;5.36;45.38
47706;BME280;33471;52.104;1.318;2023-02-07T00:16:19;103586.80;;;5.81;44.82
47706;BME280;33471;52.104;1.318;2023-02-07T00:18:48;103593.39;;;5.35;45.51
47706;BME280;33471;52.104;1.318;2023-02-07T00:21:17;103600.98;;;5.18;45.47
47706;BME280;33471;52.104;1.318;2023-02-07T00:23:46;103598.86;;;5.25;45.48
47706;BME280;33471;52.104;1.318;2023-02-07T00:26:15;103592.58;;;5.48;45.55
47706;BME280;33471;52.104;1.318;2023-02-07T00:28:43;103594.02;;;5.79;45.40
47706;BME280;33471;52.104;1.318;2023-02-07T00:31:11;103596.19;;;5.48;45.17
47706;BME280;33471;52.104;1.318;2023-02-07T00:33:41;103594.38;;;5.37;45.57
47706;BME280;33471;52.104;1.318;2023-02-07T00:36:12;103590.56;;;4.94;45.18
47706;BME280;33471;52.104;1.318;2023-02-07T00:38:39;103588.44;;;5.31;45.20
47706;BME280;33471;52.104;1.318;2023-02-07T00:41:07;103586.22;;;5.28;45.26
47706;BME280;33471;52.104;1.318;2023-02-07T00:43:35;103588.16;;;3.37;49.26
47706;BME280;33471;52.104;1.318;2023-02-07T00:46:03;103587.43;;;3.37;49.02
47706;BME280;33471;52.104;1.318;2023-02-07T00:48:31;103584.43;;;4.78;47.42
47706;BME280;33471;52.104;1.318;2023-02-07T00:50:59;103586.15;;;3.74;48.31
47706;BME280;33471;52.104;1.318;2023-02-07T00:53:27;103587.70;;;4.79;46.71
47706;BME280;33471;52.104;1.318;2023-02-07T00:55:55;103585.77;;;4.43;47.08
47706;BME280;33471;52.104;1.318;2023-02-07T00:58:23;103580.70;;;4.80;46.57
47706;BME280;33471;52.104;1.318;2023-02-07T01:00:51;103581.85;;;4.68;46.47
47706;BME280;33471;52.104;1.318;2023-02-07T01:03:19;103580.99;;;3.78;47.79
47706;BME280;33471;52.104;1.318;2023-02-07T01:05:46;103578.96;;;3.09;48.87
47706;BME280;33471;52.104;1.318;2023-02-07T01:08:14;103575.21;;;3.33;48.45
47706;BME280;33471;52.104;1.318;2023-02-07T01:10:43;103580.09;;;1.92;52.57
47706;BME280;33471;52.104;1.318;2023-02-07T01:13:11;103575.95;;;2.79;49.77
47706;BME280;33471;52.104;1.318;2023-02-07T01:15:42;103573.60;;;2.46;50.42
47706;BME280;33471;52.104;1.318;2023-02-07T01:18:10;103573.04;;;2.11;51.92
47706;BME280;33471;52.104;1.318;2023-02-07T01:20:37;103573.35;;;2.38;52.20
47706;BME280;33471;52.104;1.318;2023-02-07T01:23:05;103575.22;;;1.72;53.36
47706;BME280;33471;52.104;1.318;2023-02-07T01:25:32;103570.80;;;2.83;50.97
47706;BME280;33471;52.104;1.318;2023-02-07T01:27:59;103563.67;;;3.58;50.04
47706;BME280;33471;52.104;1.318;2023-02-07T01:30:27;103566.95;;;2.94;51.67
47706;BME280;33471;52.104;1.318;2023-02-07T01:32:55;103561.70;;;3.38;50.38
47706;BME280;33471;52.104;1.318;2023-02-07T01:35:22;103562.93;;;4.30;48.15
47706;BME280;33471;52.104;1.318;2023-02-07T01:37:49;103567.19;;;3.60;49.07
47706;BME280;33471;52.104;1.318;2023-02-07T01:40:16;103564.73;;;4.39;47.65
47706;BME280;33471;52.104;1.318;2023-02-07T01:42:44;103568.31;;;4.45;47.18
47706;BME280;33471;52.104;1.318;2023-02-07T01:45:26;103567.34;;;4.26;47.81
47706;BME280;33471;52.104;1.318;2023-02-07T01:47:59;103567.64;;;4.22;48.40
47706;BME280;33471;52.104;1.318;2023-02-07T01:50:28;103570.21;;;4.36;47.93
47706;BME280;33471;52.104;1.318;2023-02-07T01:52:57;103572.08;;;4.62;47.47
47706;BME280;33471;52.104;1.318;2023-02-07T01:55:29;103574.72;;;4.71;47.40
47706;BME280;33471;52.104;1.318;2023-02-07T01:57:58;103572.02;;;4.69;47.11
47706;BME280;33471;52.104;1.318;2023-02-07T02:00:26;103565.87;;;4.78;47.06
47706;BME280;33471;52.104;1.318;2023-02-07T02:02:53;103561.41;;;4.79;47.03
47706;BME280;33471;52.104;1.318;2023-02-07T02:05:21;103558.18;;;4.90;46.72
47706;BME280;33471;52.104;1.318;2023-02-07T02:07:49;103554.24;;;4.87;46.54
47706;BME280;33471;52.104;1.318;2023-02-07T02:10:18;103553.23;;;4.70;46.66
47706;BME280;33471;52.104;1.318;2023-02-07T02:13:07;103550.84;;;4.56;47.13
47706;BME280;33471;52.104;1.318;2023-02-07T02:15:43;103553.18;;;4.51;47.15
47706;BME280;33471;52.104;1.318;2023-02-07T02:18:28;103552.97;;;5.03;46.36
47706;BME280;33471;52.104;1.318;2023-02-07T02:21:19;103547.83;;;4.64;45.79
47706;BME280;33471;52.104;1.318;2023-02-07T02:24:13;103549.84;;;4.63;46.39
47706;BME280;33471;52.104;1.318;2023-02-07T02:26:58;103554.21;;;4.59;46.20
47706;BME280;33471;52.104;1.318;2023-02-07T02:29:42;103555.84;;;4.92;45.37
47706;BME280;33471;52.104;1.318;2023-02-07T02:32:46;103556.13;;;4.77;45.69
47706;BME280;33471;52.104;1.318;2023-02-07T02:35:22;103556.67;;;4.85;46.01
47706;BME280;33471;52.104;1.318;2023-02-07T02:38:01;103557.65;;;4.75;45.69
47706;BME280;33471;52.104;1.318;2023-02-07T02:40:37;103559.48;;;4.63;45.81
47706;BME280;33471;52.104;1.318;2023-02-07T02:43:12;103553.15;;;4.81;45.49
47706;BME280;33471;52.104;1.318;2023-02-07T02:45:45;103550.65;;;4.56;45.56
47706;BME280;33471;52.104;1.318;2023-02-07T02:48:16;103548.25;;;4.96;45.67
47706;BME280;33471;52.104;1.318;2023-02-07T02:50:46;103552.97;;;4.64;45.63
47706;BME280;33471;52.104;1.318;2023-02-07T02:53:15;103552.58;;;4.62;45.46
47706;BME280;33471;52.104;1.318;2023-02-07T02:55:54;103551.66;;;4.75;45.56
47706;BME280;33471;52.104;1.318;2023-02-07T02:58:35;103552.78;;;4.36;44.76
47706;BME280;33471;52.104;1.318;2023-02-07T03:01:18;103553.51;;;4.12;45.86
47706;BME280;33471;52.104;1.318;2023-02-07T03:04:01;103554.07;;;4.39;45.78
47706;BME280;33471;52.104;1.318;2023-02-07T03:06:37;103559.23;;;4.15;45.30
47706;BME280;33471;52.104;1.318;2023-02-07T03:09:20;103560.87;;;4.89;44.83
47706;BME280;33471;52.104;1.318;2023-02-07T03:11:57;103562.86;;;4.81;44.92
47706;BME280;33471;52.104;1.318;2023-02-07T03:14:32;103569.44;;;4.95;44.41
47706;BME280;33471;52.104;1.318;2023-02-07T03:17:11;103569.23;;;4.73;44.72
47706;BME280;33471;52.104;1.318;2023-02-07T03:19:44;103563.69;;;4.84;45.28
47706;BME280;33471;52.104;1.318;2023-02-07T03:22:15;103562.04;;;4.48;45.27
47706;BME280;33471;52.104;1.318;2023-02-07T03:24:48;103568.81;;;4.11;45.57
47706;BME280;33471;52.104;1.318;2023-02-07T03:27:19;103564.83;;;4.92;45.13
47706;BME280;33471;52.104;1.318;2023-02-07T03:29:49;103567.17;;;4.38;45.37
47706;BME280;33471;52.104;1.318;2023-02-07T03:32:19;103566.88;;;4.62;45.24
47706;BME280;33471;52.104;1.318;2023-02-07T03:34:51;103560.84;;;4.83;45.33
47706;BME280;33471;52.104;1.318;2023-02-07T03:37:23;103554.02;;;4.88;44.78
47706;BME280;33471;52.104;1.318;2023-02-07T03:39:52;103548.76;;;4.32;44.68
47706;BME280;33471;52.104;1.318;2023-02-07T03:42:24;103549.23;;;4.41;45.40
47706;BME280;33471;52.104;1.318;2023-02-07T03:44:53;103549.61;;;4.53;45.31
47706;BME280;33471;52.104;1.318;2023-02-07T03:47:23;103548.14;;;4.54;45.49
47706;BME280;33471;52.104;1.318;2023-02-07T03:49:51;103555.38;;;4.14;45.49
47706;BME280;33471;52.104;1.318;2023-02-07T03:52:18;103558.22;;;4.15;45.42
47706;BME280;33471;52.104;1.318;2023-02-07T03:54:45;103558.25;;;4.56;45.00
47706;BME280;33471;52.104;1.318;2023-02-07T03:57:12;103557.88;;;4.47;45.03
47706;BME280;33471;52.104;1.318;2023-02-07T03:59:39;103558.19;;;4.78;44.56
47706;BME280;33471;52.104;1.318;2023-02-07T04:02:07;103558.77;;;4.51;45.00
47706;BME280;33471;52.104;1.318;2023-02-07T04:04:35;103563.12;;;3.39;47.02
47706;BME280;33471;52.104;1.318;2023-02-07T04:07:03;103559.05;;;4.19;45.33
47706;BME280;33471;52.104;1.318;2023-02-07T04:09:30;103553.99;;;4.24;45.07
47706;BME280;33471;52.104;1.318;2023-02-07T04:11:57;103554.81;;;3.92;45.07
47706;BME280;33471;52.104;1.318;2023-02-07T04:14:24;103554.15;;;4.50;44.15
47706;BME280;33471;52.104;1.318;2023-02-07T04:16:52;103550.59;;;4.35;44.68
47706;BME280;33471;52.104;1.318;2023-02-07T04:19:20;103549.20;;;4.17;45.00
47706;BME280;33471;52.104;1.318;2023-02-07T04:21:47;103554.03;;;3.68;45.38
47706;BME280;33471;52.104;1.318;2023-02-07T04:24:15;103559.37;;;3.48;45.24
47706;BME280;33471;52.104;1.318;2023-02-07T04:26:42;103558.26;;;4.22;45.06
47706;BME280;33471;52.104;1.318;2023-02-07T04:29:09;103558.60;;;4.13;44.79
47706;BME280;33471;52.104;1.318;2023-02-07T04:31:36;103555.21;;;4.33;44.65
47706;BME280;33471;52.104;1.318;2023-02-07T04:34:04;103553.80;;;4.38;44.62
47706;BME280;33471;52.104;1.318;2023-02-07T04:36:31;103560.18;;;4.16;44.90
47706;BME280;33471;52.104;1.318;2023-02-07T04:38:59;103563.52;;;4.14;45.08
47706;BME280;33471;52.104;1.318;2023-02-07T04:41:27;103564.30;;;4.29;45.21
47706;BME280;33471;52.104;1.318;2023-02-07T04:43:54;103561.58;;;4.27;45.33
47706;BME280;33471;52.104;1.318;2023-02-07T04:46:21;103559.43;;;4.32;45.47
47706;BME280;33471;52.104;1.318;2023-02-07T04:48:48;103554.70;;;4.68;44.75
47706;BME280;33471;52.104;1.318;2023-02-07T04:51:15;103556.01;;;4.29;45.74
47706;BME280;33471;52.104;1.318;2023-02-07T04:53:43;103556.49;;;4.30;45.49
47706;BME280;33471;52.104;1.318;2023-02-07T04:56:10;103553.46;;;4.16;45.71
47706;BME280;33471;52.104;1.318;2023-02-07T04:58:37;103555.94;;;4.09;45.76
47706;BME280;33471;52.104;1.318;2023-02-07T05:01:04;103560.96;;;4.45;45.42
47706;BME280;33471;52.104;1.318;2023-02-07T05:03:32;103556.89;;;4.26;45.43
47706;BME280;33471;52.104;1.318;2023-02-07T05:05:59;103553.19;;;3.98;45.62
47706;BME280;33471;52.104;1.318;2023-02-07T05:08:27;103562.83;;;4.23;45.46
47706;BME280;33471;52.104;1.318;2023-02-07T05:10:54;103564.63;;;4.79;45.24
47706;BME280;33471;52.104;1.318;2023-02-07T05:13:23;103561.14;;;4.07;45.83
47706;BME280;33471;52.104;1.318;2023-02-07T05:15:50;103559.92;;;4.11;45.53
47706;BME280;33471;52.104;1.318;2023-02-07T05:18:17;103566.21;;;4.24;45.63
47706;BME280;33471;52.104;1.318;2023-02-07T05:20:45;103566.44;;;4.00;45.85
47706;BME280;33471;52.104;1.318;2023-02-07T05:23:13;103568.78;;;3.58;45.89
47706;BME280;33471;52.104;1.318;2023-02-07T05:25:41;103567.44;;;4.40;45.22
47706;BME280;33471;52.104;1.318;2023-02-07T05:28:09;103566.41;;;4.18;45.32
47706;BME280;33471;52.104;1.318;2023-02-07T05:30:37;103571.17;;;4.59;44.45
47706;BME280;33471;52.104;1.318;2023-02-07T05:33:04;103568.23;;;4.43;44.37
47706;BME280;33471;52.104;1.318;2023-02-07T05:35:33;103569.19;;;4.01;45.27
47706;BME280;33471;52.104;1.318;2023-02-07T05:38:01;103566.34;;;4.35;44.85
47706;BME280;33471;52.104;1.318;2023-02-07T05:40:29;103568.72;;;4.08;45.60
47706;BME280;33471;52.104;1.318;2023-02-07T05:42:56;103570.05;;;3.28;46.37
47706;BME280;33471;52.104;1.318;2023-02-07T05:45:24;103570.10;;;3.75;45.59
47706;BME280;33471;52.104;1.318;2023-02-07T05:47:51;103567.05;;;3.96;45.19
47706;BME280;33471;52.104;1.318;2023-02-07T05:50:19;103565.54;;;4.32;44.81
47706;BME280;33471;52.104;1.318;2023-02-07T05:52:46;103565.27;;;3.81;45.35
47706;BME280;33471;52.104;1.318;2023-02-07T05:55:13;103560.95;;;4.01;45.39
47706;BME280;33471;52.104;1.318;2023-02-07T05:57:42;103555.77;;;4.05;45.20
47706;BME280;33471;52.104;1.318;2023-02-07T06:00:12;103557.53;;;3.80;45.44
47706;BME280;33471;52.104;1.318;2023-02-07T06:02:41;103555.37;;;4.15;45.38
47706;BME280;33471;52.104;1.318;2023-02-07T06:05:10;103550.12;;;4.12;45.17
47706;BME280;33471;52.104;1.318;2023-02-07T06:07:38;103548.37;;;4.37;45.18
47706;BME280;33471;52.104;1.318;2023-02-07T06:10:07;103549.96;;;4.18;45.06
47706;BME280;33471;52.104;1.318;2023-02-07T06:12:34;103544.03;;;4.32;44.99
47706;BME280;33471;52.104;1.318;2023-02-07T06:15:02;103540.57;;;4.30;45.07
47706;BME280;33471;52.104;1.318;2023-02-07T06:17:30;103546.14;;;4.28;44.94
47706;BME280;33471;52.104;1.318;2023-02-07T06:19:57;103546.71;;;4.17;44.84
47706;BME280;33471;52.104;1.318;2023-02-07T06:22:25;103538.86;;;4.23;45.03
47706;BME280;33471;52.104;1.318;2023-02-07T06:24:52;103539.76;;;4.25;44.87
47706;BME280;33471;52.104;1.318;2023-02-07T06:27:19;103544.04;;;4.24;44.67
47706;BME280;33471;52.104;1.318;2023-02-07T06:29:47;103543.31;;;3.79;45.03
47706;BME280;33471;52.104;1.318;2023-02-07T06:32:14;103542.92;;;3.98;45.19
47706;BME280;33471;52.104;1.318;2023-02-07T06:34:41;103540.95;;;4.04;44.69
47706;BME280;33471;52.104;1.318;2023-02-07T06:37:09;103545.07;;;3.91;44.99
47706;BME280;33471;52.104;1.318;2023-02-07T06:39:36;103546.77;;;3.85;44.95
47706;BME280;33471;52.104;1.318;2023-02-07T06:42:03;103540.31;;;3.88;44.93
47706;BME280;33471;52.104;1.318;2023-02-07T06:44:30;103538.30;;;3.66;45.07
47706;BME280;33471;52.104;1.318;2023-02-07T06:46:57;103541.93;;;3.79;44.97
47706;BME280;33471;52.104;1.318;2023-02-07T06:49:24;103545.43;;;3.71;45.06
47706;BME280;33471;52.104;1.318;2023-02-07T06:51:52;103544.74;;;3.59;45.05
47706;BME280;33471;52.104;1.318;2023-02-07T06:54:19;103542.73;;;3.69;45.13
47706;BME280;33471;52.104;1.318;2023-02-07T06:56:46;103550.65;;;3.73;45.12
47706;BME280;33471;52.104;1.318;2023-02-07T06:59:14;103548.74;;;3.85;44.51
47706;BME280;33471;52.104;1.318;2023-02-07T07:01:41;103543.83;;;3.62;44.94
47706;BME280;33471;52.104;1.318;2023-02-07T07:04:08;103551.89;;;3.63;44.78
47706;BME280;33471;52.104;1.318;2023-02-07T07:06:35;103560.02;;;3.52;45.02
47706;BME280;33471;52.104;1.318;2023-02-07T07:09:03;103554.57;;;3.62;44.62
47706;BME280;33471;52.104;1.318;2023-02-07T07:11:31;103549.47;;;3.34;44.90
47706;BME280;33471;52.104;1.318;2023-02-07T07:13:58;103548.14;;;3.34;44.95
47706;BME280;33471;52.104;1.318;2023-02-07T07:16:25;103555.15;;;3.36;44.81
47706;BME280;33471;52.104;1.318;2023-02-07T07:18:52;103560.04;;;3.28;45.12
47706;BME280;33471;52.104;1.318;2023-02-07T07:21:20;103565.59;;;3.31;45.19
47706;BME280;33471;52.104;1.318;2023-02-07T07:23:47;103571.42;;;3.63;45.28
47706;BME280;33471;52.104;1.318;2023-02-07T07:26:14;103567.23;;;3.35;45.30
47706;BME280;33471;52.104;1.318;2023-02-07T07:28:42;103564.71;;;3.55;45.14
47706;BME280;33471;52.104;1.318;2023-02-07T07:31:10;103567.41;;;3.49;45.14
47706;BME280;33471;52.104;1.318;2023-02-07T07:33:38;103568.88;;;3.53;45.32
47706;BME280;33471;52.104;1.318;2023-02-07T07:36:06;103568.34;;;3.52;45.50
47706;BME280;33471;52.104;1.318;2023-02-07T07:38:34;103574.14;;;3.46;45.86
47706;BME280;33471;52.104;1.318;2023-02-07T07:41:02;103575.14;;;3.97;45.31
47706;BME280;33471;52.104;1.318;2023-02-07T07:43:29;103573.88;;;3.83;45.33
47706;BME280;33471;52.104;1.318;2023-02-07T07:45:57;103576.37;;;4.10;45.63
47706;BME280;33471;52.104;1.318;2023-02-07T07:48:25;103581.92;;;4.12;45.60
47706;BME280;33471;52.104;1.318;2023-02-07T07:50:52;103582.75;;;4.35;45.43
47706;BME280;33471;52.104;1.318;2023-02-07T07:53:20;103583.89;;;4.47;45.59
47706;BME280;33471;52.104;1.318;2023-02-07T07:55:48;103586.09;;;4.53;45.38
47706;BME280;33471;52.104;1.318;2023-02-07T07:58:17;103587.86;;;4.50;45.63
47706;BME280;33471;52.104;1.318;2023-02-07T08:00:44;103587.70;;;5.25;44.51
47706;BME280;33471;52.104;1.318;2023-02-07T08:03:12;103591.65;;;5.05;44.57
47706;BME280;33471;52.104;1.318;2023-02-07T08:05:39;103590.41;;;5.27;44.14
47706;BME280;33471;52.104;1.318;2023-02-07T08:08:08;103594.48;;;5.25;44.76
47706;BME280;33471;52.104;1.318;2023-02-07T08:10:35;103592.30;;;5.19;45.02
47706;BME280;33471;52.104;1.318;2023-02-07T08:13:04;103587.00;;;4.26;45.70
47706;BME280;33471;52.104;1.318;2023-02-07T08:15:31;103587.92;;;5.07;45.34
47706;BME280;33471;52.104;1.318;2023-02-07T08:17:58;103592.27;;;5.40;45.15
47706;BME280;33471;52.104;1.318;2023-02-07T08:20:26;103583.58;;;5.73;44.63
47706;BME280;33471;52.104;1.318;2023-02-07T08:22:54;103583.22;;;5.49;44.52
47706;BME280;33471;52.104;1.318;2023-02-07T08:25:21;103582.75;;;5.91;44.20
47706;BME280;33471;52.104;1.318;2023-02-07T08:27:48;103584.81;;;5.83;44.58
47706;BME280;33471;52.104;1.318;2023-02-07T08:30:16;103584.45;;;5.53;44.88
47706;BME280;33471;52.104;1.318;2023-02-07T08:32:43;103584.51;;;5.69;44.68
47706;BME280;33471;52.104;1.318;2023-02-07T08:35:10;103588.19;;;5.52;44.94
47706;BME280;33471;52.104;1.318;2023-02-07T08:37:37;103587.98;;;5.22;45.54
47706;BME280;33471;52.104;1.318;2023-02-07T08:40:06;103587.75;;;5.44;45.23
47706;BME280;33471;52.104;1.318;2023-02-07T08:42:33;103592.86;;;5.34;45.35
47706;BME280;33471;52.104;1.318;2023-02-07T08:45:01;103594.01;;;5.30;45.77
47706;BME280;33471;52.104;1.318;2023-02-07T08:47:28;103594.14;;;5.44;45.42
47706;BME280;33471;52.104;1.318;2023-02-07T08:49:56;103596.43;;;5.61;45.09
47706;BME280;33471;52.104;1.318;2023-02-07T08:52:23;103598.90;;;5.66;45.18
47706;BME280;33471;52.104;1.318;2023-02-07T08:54:50;103602.51;;;5.68;45.32
47706;BME280;33471;52.104;1.318;2023-02-07T08:57:17;103602.63;;;5.50;45.35
47706;BME280;33471;52.104;1.318;2023-02-07T08:59:44;103604.90;;;5.47;45.40
47706;BME280;33471;52.104;1.318;2023-02-07T09:02:11;103609.74;;;5.27;45.44
47706;BME280;33471;52.104;1.318;2023-02-07T09:04:38;103609.28;;;5.61;45.38
47706;BME280;33471;52.104;1.318;2023-02-07T09:07:07;103613.70;;;5.64;45.41
47706;BME280;33471;52.104;1.318;2023-02-07T09:09:35;103608.48;;;5.19;45.37
47706;BME280;33471;52.104;1.318;2023-02-07T09:12:03;103613.18;;;5.17;45.62
47706;BME280;33471;52.104;1.318;2023-02-07T09:14:31;103614.36;;;5.31;45.34
47706;BME280;33471;52.104;1.318;2023-02-07T09:16:58;103603.09;;;5.88;45.39
47706;BME280;33471;52.104;1.318;2023-02-07T09:19:25;103598.85;;;5.53;45.38
47706;BME280;33471;52.104;1.318;2023-02-07T09:21:52;103598.86;;;5.85;45.54
47706;BME280;33471;52.104;1.318;2023-02-07T09:24:20;103602.90;;;5.74;45.88
47706;BME280;33471;52.104;1.318;2023-02-07T09:26:47;103605.20;;;5.57;46.29
47706;BME280;33471;52.104;1.318;2023-02-07T09:29:15;103607.37;;;6.26;45.77
47706;BME280;33471;52.104;1.318;2023-02-07T09:31:43;103608.82;;;5.78;45.75
47706;BME280;33471;52.104;1.318;2023-02-07T09:34:11;103611.02;;;6.11;45.61
47706;BME280;33471;52.104;1.318;2023-02-07T09:36:39;103607.75;;;5.97;45.54
47706;BME280;33471;52.104;1.318;2023-02-07T09:39:06;103611.49;;;6.09;45.57
47706;BME280;33471;52.104;1.318;2023-02-07T09:41:41;103610.37;;;6.53;45.30
47706;BME280;33471;52.104;1.318;2023-02-07T09:44:17;103611.94;;;6.54;45.41
47706;BME280;33471;52.104;1.318;2023-02-07T09:46:51;103613.76;;;6.61;45.51
47706;BME280;33471;52.104;1.318;2023-02-07T09:49:28;103617.53;;;6.45;45.59
47706;BME280;33471;52.104;1.318;2023-02-07T09:51:59;103619.89;;;6.55;45.70
47706;BME280;33471;52.104;1.318;2023-02-07T09:54:32;103618.47;;;6.71;45.81
47706;BME280;33471;52.104;1.318;2023-02-07T09:57:06;103616.73;;;7.14;45.97
47706;BME280;33471;52.104;1.318;2023-02-07T09:59:42;103622.03;;;7.29;46.11
47706;BME280;33471;52.104;1.318;2023-02-07T10:02:19;103629.37;;;6.88;46.36
47706;BME280;33471;52.104;1.318;2023-02-07T10:04:49;103629.55;;;7.05;46.48
47706;BME280;33471;52.104;1.318;2023-02-07T10:07:19;103629.66;;;7.20;46.64
47706;BME280;33471;52.104;1.318;2023-02-07T10:09:46;103628.91;;;7.48;46.58
47706;BME280;33471;52.104;1.318;2023-02-07T10:12:27;103628.63;;;7.49;46.77
47706;BME280;33471;52.104;1.318;2023-02-07T10:15:09;103628.38;;;7.39;47.01
47706;BME280;33471;52.104;1.318;2023-02-07T10:17:52;103637.63;;;7.70;46.99
47706;BME280;33471;52.104;1.318;2023-02-07T10:20:31;103637.15;;;7.98;47.36
47706;BME280;33471;52.104;1.318;2023-02-07T10:23:09;103638.43;;;7.94;47.49
47706;BME280;33471;52.104;1.318;2023-02-07T10:25:45;103634.22;;;8.08;47.62
47706;BME280;33471;52.104;1.318;2023-02-07T10:28:38;103642.32;;;7.57;48.64
47706;BME280;33471;52.104;1.318;2023-02-07T10:31:15;103644.17;;;7.40;48.87
47706;BME280;33471;52.104;1.318;2023-02-07T10:33:47;103646.25;;;8.02;48.96
47706;BME280;33471;52.104;1.318;2023-02-07T10:36:16;103643.19;;;8.14;48.95
47706;BME280;33471;52.104;1.318;2023-02-07T10:38:46;103644.64;;;8.22;48.79
47706;BME280;33471;52.104;1.318;2023-02-07T10:41:20;103649.98;;;8.03;49.55
47706;BME280;33471;52.104;1.318;2023-02-07T10:43:50;103646.26;;;7.22;49.70
47706;BME280;33471;52.104;1.318;2023-02-07T10:46:20;103649.24;;;7.53;49.41
47706;BME280;33471;52.104;1.318;2023-02-07T10:48:48;103651.93;;;7.93;49.33
47706;BME280;33471;52.104;1.318;2023-02-07T10:51:20;103645.23;;;7.28;48.78
47706;BME280;33471;52.104;1.318;2023-02-07T10:54:03;103641.30;;;7.68;48.96
47706;BME280;33471;52.104;1.318;2023-02-07T10:56:33;103646.92;;;7.67;49.81
47706;BME280;33471;52.104;1.318;2023-02-07T10:59:01;103645.21;;;8.33;48.61
47706;BME280;33471;52.104;1.318;2023-02-07T11:01:31;103647.77;;;7.85;49.04
47706;BME280;33471;52.104;1.318;2023-02-07T11:04:00;103648.46;;;8.09;47.85
47706;BME280;33471;52.104;1.318;2023-02-07T11:06:29;103646.10;;;7.61;48.00
47706;BME280;33471;52.104;1.318;2023-02-07T11:09:20;103646.49;;;7.24;49.55
47706;BME280;33471;52.104;1.318;2023-02-07T11:11:49;103641.13;;;7.87;48.34
47706;BME280;33471;52.104;1.318;2023-02-07T11:14:18;103644.51;;;7.41;49.05
47706;BME280;33471;52.104;1.318;2023-02-07T11:16:46;103638.71;;;7.77;48.68
47706;BME280;33471;52.104;1.318;2023-02-07T11:19:17;103632.44;;;7.14;50.05
47706;BME280;33471;52.104;1.318;2023-02-07T11:21:47;103627.99;;;7.68;48.44
47706;BME280;33471;52.104;1.318;2023-02-07T11:24:16;103628.25;;;8.12;47.23
47706;BME280;33471;52.104;1.318;2023-02-07T11:26:53;103631.06;;;7.69;47.05
47706;BME280;33471;52.104;1.318;2023-02-07T11:29:23;103624.24;;;7.76;46.80
47706;BME280;33471;52.104;1.318;2023-02-07T11:31:53;103613.46;;;8.56;45.69
47706;BME280;33471;52.104;1.318;2023-02-07T11:34:31;103612.56;;;8.81;45.58
47706;BME280;33471;52.104;1.318;2023-02-07T11:37:16;103609.89;;;8.01;46.39
47706;BME280;33471;52.104;1.318;2023-02-07T11:39:45;103612.51;;;7.59;45.99
47706;BME280;33471;52.104;1.318;2023-02-07T11:42:17;103608.09;;;8.23;45.62
47706;BME280;33471;52.104;1.318;2023-02-07T11:44:46;103600.15;;;8.51;44.83
47706;BME280;33471;52.104;1.318;2023-02-07T11:47:16;103597.40;;;8.22;45.19
47706;BME280;33471;52.104;1.318;2023-02-07T11:49:47;103599.31;;;8.61;44.41
47706;BME280;33471;52.104;1.318;2023-02-07T11:52:15;103591.61;;;8.69;44.65
47706;BME280;33471;52.104;1.318;2023-02-07T11:54:49;103587.64;;;8.23;45.48
47706;BME280;33471;52.104;1.318;2023-02-07T11:57:18;103591.18;;;8.89;44.72
47706;BME280;33471;52.104;1.318;2023-02-07T11:59:52;103581.71;;;8.24;45.31
47706;BME280;33471;52.104;1.318;2023-02-07T12:02:27;103581.74;;;7.50;46.39
47706;BME280;33471;52.104;1.318;2023-02-07T12:04:55;103574.67;;;8.86;44.18
47706;BME280;33471;52.104;1.318;2023-02-07T12:07:38;103579.14;;;8.74;43.90
47706;BME280;33471;52.104;1.318;2023-02-07T12:10:13;103574.16;;;8.87;43.47
47706;BME280;33471;52.104;1.318;2023-02-07T12:12:44;103567.74;;;8.92;42.31
47706;BME280;33471;52.104;1.318;2023-02-07T12:15:15;103571.12;;;8.56;43.21
47706;BME280;33471;52.104;1.318;2023-02-07T12:17:53;103566.27;;;9.09;42.61
47706;BME280;33471;52.104;1.318;2023-02-07T12:20:25;103560.58;;;8.67;43.55
47706;BME280;33471;52.104;1.318;2023-02-07T12:22:57;103562.22;;;8.33;43.01
47706;BME280;33471;52.104;1.318;2023-02-07T12:25:30;103563.25;;;9.22;42.29
47706;BME280;33471;52.104;1.318;2023-02-07T12:28:05;103558.70;;;9.69;41.36
47706;BME280;33471;52.104;1.318;2023-02-07T12:30:41;103557.57;;;9.44;41.58
47706;BME280;33471;52.104;1.318;2023-02-07T12:33:17;103556.29;;;9.89;40.44
47706;BME280;33471;52.104;1.318;2023-02-07T12:35:51;103558.47;;;9.37;41.48
47706;BME280;33471;52.104;1.318;2023-02-07T12:38:23;103557.03;;;8.58;42.12
47706;BME280;33471;52.104;1.318;2023-02-07T12:40:54;103555.22;;;9.80;41.29
47706;BME280;33471;52.104;1.318;2023-02-07T12:43:26;103550.25;;;10.02;40.54
47706;BME280;33471;52.104;1.318;2023-02-07T12:46:04;103551.05;;;10.19;41.35
47706;BME280;33471;52.104;1.318;2023-02-07T12:48:52;103543.41;;;9.79;40.43
47706;BME280;33471;52.104;1.318;2023-02-07T12:51:28;103545.60;;;9.66;40.09
47706;BME280;33471;52.104;1.318;2023-02-07T12:54:12;103545.80;;;9.57;40.99
47706;BME280;33471;52.104;1.318;2023-02-07T12:56:52;103546.95;;;9.29;41.47
47706;BME280;33471;52.104;1.318;2023-02-07T12:59:31;103545.17;;;9.57;41.36
47706;BME280;33471;52.104;1.318;2023-02-07T13:02:17;103544.24;;;10.02;40.52
47706;BME280;33471;52.104;1.318;2023-02-07T13:04:57;103540.72;;;9.32;40.70
47706;BME280;33471;52.104;1.318;2023-02-07T13:07:40;103538.05;;;10.44;39.39
47706;BME280;33471;52.104;1.318;2023-02-07T13:10:18;103534.60;;;10.43;39.26
47706;BME280;33471;52.104;1.318;2023-02-07T13:12:53;103529.38;;;10.45;39.01
47706;BME280;33471;52.104;1.318;2023-02-07T13:15:27;103526.76;;;10.28;38.61
47706;BME280;33471;52.104;1.318;2023-02-07T13:18:04;103525.10;;;9.75;39.59